الصفحة الرئيسية
METAR-TAF:

METAR-TAF

مطار :

مطار هراة الدولي

هرات, أفغانستان

دائرة عرض: 34-13N, خط طول: 062-13E, ارتفاع: 964 متر

مراقبة الطقس الحالي

تاريخ ووقت الإصدار 1ساعة و 5 دقيقة قبل الساعة 08:55UTC
ريح 15 عقدة من الشمال الشرقي تتزايد حتى 30 عقدة
درجة الحرارة 34°درجة مئوية
الرطوبة 9%
ضغط 1011 hPa
الرؤية 10 كم أو أكثر
الغيوم لا تقل 1500 م ولا وجود لمزنة ركامية السحاب الأسود

METAR: OAHR 040855Z 04015G30KT CAVOK 34/M03 Q1011 RMK A2986 BLU

زمن: 14:30 (10:00 UTC)

توقعات

تاريخ ووقت الإصدار 5ساعات و 0 دقيقة قبل الساعة 05:00UTC
التوقعات صالحة من04 الساعة 06 UTC إلى 05 الساعة 06 UTC
ريح 15 عقدة من الشمال/الشمال الشرقي تتزايد حتى 30 عقدة
الرؤية 10 كم أو أكثر
الغيوم لا تقل 1500 م ولا وجود لمزنة ركامية السحاب الأسود
أصبح
من 04 الساعة 15 UTC إلى 04 الساعة 17 UTC
ريح 10 عقدة من الشمال/الشمال الشرقي تتزايد حتى 20 عقدة

TAF: OAHR 040500Z 0406/0506 03015G30KT CAVOK BECMG 0415/0417 03010G20KT

أرصاد الطقس والتوقعات من أكثر من 4000 مطار (تقارير الطقس للمطار METAR والتنبؤ بالطقس بالمطارTAF).

المحطات المتاحة هي النقط الصفراء والحمراء على الخريطة.

حرك المؤشر فوق النقطة لمعرفة اسم المحطة.

ثم انقر لمعرفة أرصاد وتوقعات الطقس.

لتغيير الخارطة: اضغط على الأزرار الخضراء مع رمز الصليب الأسود للتكبير. على الزر الأخضر مع شرطة للتصغير، أو على الأسهم الخضراء للخرائط المجاورة.


METAR-TAF: